sensor_id;sensor_type;location;lat;lon;timestamp;temperature;humidity
10566;DHT22;5331;48.148;16.326;2022-10-16T00:01:25;12.00;1.00
10566;DHT22;5331;48.148;16.326;2022-10-16T00:03:52;12.00;1.00
10566;DHT22;5331;48.148;16.326;2022-10-16T00:06:21;12.00;1.00
10566;DHT22;5331;48.148;16.326;2022-10-16T00:08:48;12.00;1.00
10566;DHT22;5331;48.148;16.326;2022-10-16T00:11:17;12.10;1.00
10566;DHT22;5331;48.148;16.326;2022-10-16T00:13:48;12.00;1.00
10566;DHT22;5331;48.148;16.326;2022-10-16T00:16:16;12.10;1.00
10566;DHT22;5331;48.148;16.326;2022-10-16T00:18:43;12.10;1.00
10566;DHT22;5331;48.148;16.326;2022-10-16T00:21:14;12.00;1.00
10566;DHT22;5331;48.148;16.326;2022-10-16T00:23:41;12.00;1.00
10566;DHT22;5331;48.148;16.326;2022-10-16T00:26:11;12.00;1.00
10566;DHT22;5331;48.148;16.326;2022-10-16T00:28:38;12.00;1.00
10566;DHT22;5331;48.148;16.326;2022-10-16T00:31:08;12.00;1.00
10566;DHT22;5331;48.148;16.326;2022-10-16T00:33:36;11.90;1.00
10566;DHT22;5331;48.148;16.326;2022-10-16T00:36:04;11.90;1.00
10566;DHT22;5331;48.148;16.326;2022-10-16T00:38:31;11.90;1.00
10566;DHT22;5331;48.148;16.326;2022-10-16T00:40:59;11.90;1.00
10566;DHT22;5331;48.148;16.326;2022-10-16T00:43:35;11.90;1.00
10566;DHT22;5331;48.148;16.326;2022-10-16T00:46:04;11.90;1.00
10566;DHT22;5331;48.148;16.326;2022-10-16T00:48:33;11.90;1.00
10566;DHT22;5331;48.148;16.326;2022-10-16T00:51:00;11.90;1.00
10566;DHT22;5331;48.148;16.326;2022-10-16T00:53:27;11.80;1.00
10566;DHT22;5331;48.148;16.326;2022-10-16T00:55:54;11.80;1.00
10566;DHT22;5331;48.148;16.326;2022-10-16T00:58:21;11.80;1.00
10566;DHT22;5331;48.148;16.326;2022-10-16T01:00:48;11.80;1.00
10566;DHT22;5331;48.148;16.326;2022-10-16T01:03:24;11.80;1.00
10566;DHT22;5331;48.148;16.326;2022-10-16T01:05:59;11.80;1.00
10566;DHT22;5331;48.148;16.326;2022-10-16T01:08:34;11.80;1.00
10566;DHT22;5331;48.148;16.326;2022-10-16T01:11:07;11.80;1.00
10566;DHT22;5331;48.148;16.326;2022-10-16T01:13:42;11.80;1.00
10566;DHT22;5331;48.148;16.326;2022-10-16T01:16:13;11.80;1.00
10566;DHT22;5331;48.148;16.326;2022-10-16T01:18:44;11.80;1.00
10566;DHT22;5331;48.148;16.326;2022-10-16T01:21:16;11.80;1.00
10566;DHT22;5331;48.148;16.326;2022-10-16T01:23:50;11.80;1.00
10566;DHT22;5331;48.148;16.326;2022-10-16T01:26:30;11.80;1.00
10566;DHT22;5331;48.148;16.326;2022-10-16T01:29:03;11.70;1.00
10566;DHT22;5331;48.148;16.326;2022-10-16T01:31:36;11.80;1.00
10566;DHT22;5331;48.148;16.326;2022-10-16T01:34:10;11.80;1.00
10566;DHT22;5331;48.148;16.326;2022-10-16T01:36:41;11.80;1.00
10566;DHT22;5331;48.148;16.326;2022-10-16T01:39:10;11.80;1.00
10566;DHT22;5331;48.148;16.326;2022-10-16T01:41:40;11.80;1.00
10566;DHT22;5331;48.148;16.326;2022-10-16T01:44:14;11.80;1.00
10566;DHT22;5331;48.148;16.326;2022-10-16T01:46:46;11.80;1.00
10566;DHT22;5331;48.148;16.326;2022-10-16T01:49:14;11.70;1.00
10566;DHT22;5331;48.148;16.326;2022-10-16T01:51:44;11.70;1.00
10566;DHT22;5331;48.148;16.326;2022-10-16T01:54:14;11.60;1.00
10566;DHT22;5331;48.148;16.326;2022-10-16T01:56:43;11.60;1.00
10566;DHT22;5331;48.148;16.326;2022-10-16T01:59:15;11.60;1.00
10566;DHT22;5331;48.148;16.326;2022-10-16T02:01:47;11.60;1.00
10566;DHT22;5331;48.148;16.326;2022-10-16T02:04:20;11.60;1.00
10566;DHT22;5331;48.148;16.326;2022-10-16T02:06:48;11.50;1.00
10566;DHT22;5331;48.148;16.326;2022-10-16T02:09:15;11.50;1.00
10566;DHT22;5331;48.148;16.326;2022-10-16T02:11:42;11.50;1.00
10566;DHT22;5331;48.148;16.326;2022-10-16T02:14:09;11.50;1.00
10566;DHT22;5331;48.148;16.326;2022-10-16T02:16:40;11.40;1.00
10566;DHT22;5331;48.148;16.326;2022-10-16T02:19:08;11.40;1.00
10566;DHT22;5331;48.148;16.326;2022-10-16T02:21:39;11.40;1.00
10566;DHT22;5331;48.148;16.326;2022-10-16T02:24:11;11.40;1.00
10566;DHT22;5331;48.148;16.326;2022-10-16T02:26:43;11.40;1.00
10566;DHT22;5331;48.148;16.326;2022-10-16T02:29:17;11.40;1.00
10566;DHT22;5331;48.148;16.326;2022-10-16T02:31:50;11.40;1.00
10566;DHT22;5331;48.148;16.326;2022-10-16T02:34:19;11.30;1.00
10566;DHT22;5331;48.148;16.326;2022-10-16T02:36:48;11.30;1.00
10566;DHT22;5331;48.148;16.326;2022-10-16T02:39:17;11.30;1.00
10566;DHT22;5331;48.148;16.326;2022-10-16T02:41:44;11.20;1.00
10566;DHT22;5331;48.148;16.326;2022-10-16T02:44:11;11.30;1.00
10566;DHT22;5331;48.148;16.326;2022-10-16T02:46:39;11.30;1.00
10566;DHT22;5331;48.148;16.326;2022-10-16T02:49:07;11.20;1.00
10566;DHT22;5331;48.148;16.326;2022-10-16T02:51:34;11.20;1.00
10566;DHT22;5331;48.148;16.326;2022-10-16T02:54:01;11.20;1.00
10566;DHT22;5331;48.148;16.326;2022-10-16T02:56:28;11.20;1.00
10566;DHT22;5331;48.148;16.326;2022-10-16T02:58:56;11.20;1.00
10566;DHT22;5331;48.148;16.326;2022-10-16T03:01:23;11.20;1.00
10566;DHT22;5331;48.148;16.326;2022-10-16T03:03:50;11.20;1.00
10566;DHT22;5331;48.148;16.326;2022-10-16T03:06:18;11.20;1.00
10566;DHT22;5331;48.148;16.326;2022-10-16T03:08:45;11.20;1.00
10566;DHT22;5331;48.148;16.326;2022-10-16T03:11:12;11.20;1.00
10566;DHT22;5331;48.148;16.326;2022-10-16T03:13:39;11.20;1.00
10566;DHT22;5331;48.148;16.326;2022-10-16T03:16:06;11.20;1.00
10566;DHT22;5331;48.148;16.326;2022-10-16T03:18:33;11.20;1.00
10566;DHT22;5331;48.148;16.326;2022-10-16T03:21:00;11.10;1.00
10566;DHT22;5331;48.148;16.326;2022-10-16T03:23:29;11.10;1.00
10566;DHT22;5331;48.148;16.326;2022-10-16T03:25:56;11.10;1.00
10566;DHT22;5331;48.148;16.326;2022-10-16T03:28:22;11.10;1.00
10566;DHT22;5331;48.148;16.326;2022-10-16T03:30:49;11.10;1.00
10566;DHT22;5331;48.148;16.326;2022-10-16T03:33:16;11.10;1.00
10566;DHT22;5331;48.148;16.326;2022-10-16T03:35:51;11.10;1.00
10566;DHT22;5331;48.148;16.326;2022-10-16T03:38:18;11.00;1.00
10566;DHT22;5331;48.148;16.326;2022-10-16T03:40:47;11.10;1.00
10566;DHT22;5331;48.148;16.326;2022-10-16T03:43:14;11.10;1.00
10566;DHT22;5331;48.148;16.326;2022-10-16T03:45:41;11.10;1.00
10566;DHT22;5331;48.148;16.326;2022-10-16T03:48:08;11.10;1.00
10566;DHT22;5331;48.148;16.326;2022-10-16T03:50:35;11.00;1.00
10566;DHT22;5331;48.148;16.326;2022-10-16T03:53:02;11.00;1.00
10566;DHT22;5331;48.148;16.326;2022-10-16T03:55:29;11.10;1.00
10566;DHT22;5331;48.148;16.326;2022-10-16T03:57:57;11.10;1.00
10566;DHT22;5331;48.148;16.326;2022-10-16T04:00:24;11.10;1.00
10566;DHT22;5331;48.148;16.326;2022-10-16T04:02:51;11.10;1.00
10566;DHT22;5331;48.148;16.326;2022-10-16T04:05:18;11.10;1.00
10566;DHT22;5331;48.148;16.326;2022-10-16T04:07:45;11.10;1.00
10566;DHT22;5331;48.148;16.326;2022-10-16T04:10:11;11.10;1.00
10566;DHT22;5331;48.148;16.326;2022-10-16T04:12:38;11.00;1.00
10566;DHT22;5331;48.148;16.326;2022-10-16T04:15:08;11.00;1.00
10566;DHT22;5331;48.148;16.326;2022-10-16T04:17:35;10.90;1.00
10566;DHT22;5331;48.148;16.326;2022-10-16T04:20:03;10.90;1.00
10566;DHT22;5331;48.148;16.326;2022-10-16T04:22:30;10.90;1.00
10566;DHT22;5331;48.148;16.326;2022-10-16T04:24:57;10.80;1.00
10566;DHT22;5331;48.148;16.326;2022-10-16T04:27:23;10.80;1.00
10566;DHT22;5331;48.148;16.326;2022-10-16T04:29:50;10.80;1.00
10566;DHT22;5331;48.148;16.326;2022-10-16T04:32:19;10.80;1.00
10566;DHT22;5331;48.148;16.326;2022-10-16T04:34:47;10.80;1.00
10566;DHT22;5331;48.148;16.326;2022-10-16T04:37:14;10.90;1.00
10566;DHT22;5331;48.148;16.326;2022-10-16T04:39:40;10.90;1.00
10566;DHT22;5331;48.148;16.326;2022-10-16T04:42:07;10.90;1.00
10566;DHT22;5331;48.148;16.326;2022-10-16T04:44:34;10.90;1.00
10566;DHT22;5331;48.148;16.326;2022-10-16T04:47:01;10.90;1.00
10566;DHT22;5331;48.148;16.326;2022-10-16T04:49:30;10.90;1.00
10566;DHT22;5331;48.148;16.326;2022-10-16T04:51:57;10.90;1.00
10566;DHT22;5331;48.148;16.326;2022-10-16T04:54:24;10.90;1.00
10566;DHT22;5331;48.148;16.326;2022-10-16T04:56:50;10.90;1.00
10566;DHT22;5331;48.148;16.326;2022-10-16T04:59:18;11.00;1.00
10566;DHT22;5331;48.148;16.326;2022-10-16T05:01:46;11.00;1.00
10566;DHT22;5331;48.148;16.326;2022-10-16T05:04:13;10.90;1.00
10566;DHT22;5331;48.148;16.326;2022-10-16T05:06:42;11.00;1.00
10566;DHT22;5331;48.148;16.326;2022-10-16T05:09:09;10.90;1.00
10566;DHT22;5331;48.148;16.326;2022-10-16T05:11:36;10.90;1.00
10566;DHT22;5331;48.148;16.326;2022-10-16T05:14:03;10.90;1.00
10566;DHT22;5331;48.148;16.326;2022-10-16T05:16:30;10.90;1.00
10566;DHT22;5331;48.148;16.326;2022-10-16T05:18:57;10.90;1.00
10566;DHT22;5331;48.148;16.326;2022-10-16T05:21:24;10.90;1.00
10566;DHT22;5331;48.148;16.326;2022-10-16T05:23:54;10.90;1.00
10566;DHT22;5331;48.148;16.326;2022-10-16T05:26:21;10.90;1.00
10566;DHT22;5331;48.148;16.326;2022-10-16T05:28:49;10.80;1.00
10566;DHT22;5331;48.148;16.326;2022-10-16T05:31:16;10.80;1.00
10566;DHT22;5331;48.148;16.326;2022-10-16T05:33:43;10.80;1.00
10566;DHT22;5331;48.148;16.326;2022-10-16T05:36:10;10.80;1.00
10566;DHT22;5331;48.148;16.326;2022-10-16T05:38:38;10.80;1.00
10566;DHT22;5331;48.148;16.326;2022-10-16T05:41:07;10.80;1.00
10566;DHT22;5331;48.148;16.326;2022-10-16T05:43:33;10.80;1.00
10566;DHT22;5331;48.148;16.326;2022-10-16T05:46:02;10.80;1.00
10566;DHT22;5331;48.148;16.326;2022-10-16T05:48:30;10.70;1.00
10566;DHT22;5331;48.148;16.326;2022-10-16T05:50:58;10.70;1.00
10566;DHT22;5331;48.148;16.326;2022-10-16T05:53:27;10.80;1.00
10566;DHT22;5331;48.148;16.326;2022-10-16T05:55:54;10.80;1.00
10566;DHT22;5331;48.148;16.326;2022-10-16T05:58:23;10.90;1.00
10566;DHT22;5331;48.148;16.326;2022-10-16T06:00:54;10.90;1.00
10566;DHT22;5331;48.148;16.326;2022-10-16T06:03:22;11.00;1.00
10566;DHT22;5331;48.148;16.326;2022-10-16T06:05:49;11.00;1.00
10566;DHT22;5331;48.148;16.326;2022-10-16T06:08:17;11.00;1.00
10566;DHT22;5331;48.148;16.326;2022-10-16T06:10:44;11.00;1.00
10566;DHT22;5331;48.148;16.326;2022-10-16T06:13:12;11.10;1.00
10566;DHT22;5331;48.148;16.326;2022-10-16T06:15:41;11.10;1.00
10566;DHT22;5331;48.148;16.326;2022-10-16T06:18:09;11.10;1.00
10566;DHT22;5331;48.148;16.326;2022-10-16T06:20:36;11.10;1.00
10566;DHT22;5331;48.148;16.326;2022-10-16T06:23:03;11.10;1.00
10566;DHT22;5331;48.148;16.326;2022-10-16T06:25:31;11.10;1.00
10566;DHT22;5331;48.148;16.326;2022-10-16T06:27:58;11.20;1.00
10566;DHT22;5331;48.148;16.326;2022-10-16T06:30:25;11.20;1.00
10566;DHT22;5331;48.148;16.326;2022-10-16T06:32:53;11.20;1.00
10566;DHT22;5331;48.148;16.326;2022-10-16T06:35:20;11.30;1.00
10566;DHT22;5331;48.148;16.326;2022-10-16T06:37:47;11.30;1.00
10566;DHT22;5331;48.148;16.326;2022-10-16T06:40:14;11.20;1.00
10566;DHT22;5331;48.148;16.326;2022-10-16T06:42:41;11.20;1.00
10566;DHT22;5331;48.148;16.326;2022-10-16T06:45:09;11.20;1.00
10566;DHT22;5331;48.148;16.326;2022-10-16T06:47:36;11.20;1.00
10566;DHT22;5331;48.148;16.326;2022-10-16T06:50:05;11.20;1.00
10566;DHT22;5331;48.148;16.326;2022-10-16T06:52:33;11.20;1.00
10566;DHT22;5331;48.148;16.326;2022-10-16T06:55:00;11.30;1.00
10566;DHT22;5331;48.148;16.326;2022-10-16T06:57:28;11.20;1.00
10566;DHT22;5331;48.148;16.326;2022-10-16T06:59:55;11.30;1.00
10566;DHT22;5331;48.148;16.326;2022-10-16T07:02:22;11.20;1.00
10566;DHT22;5331;48.148;16.326;2022-10-16T07:04:49;11.20;1.00
10566;DHT22;5331;48.148;16.326;2022-10-16T07:07:17;11.30;1.00
10566;DHT22;5331;48.148;16.326;2022-10-16T07:09:44;11.30;1.00
10566;DHT22;5331;48.148;16.326;2022-10-16T07:12:11;11.40;1.00
10566;DHT22;5331;48.148;16.326;2022-10-16T07:14:38;11.50;1.00
10566;DHT22;5331;48.148;16.326;2022-10-16T07:17:05;11.60;1.00
10566;DHT22;5331;48.148;16.326;2022-10-16T07:19:32;11.60;1.00
10566;DHT22;5331;48.148;16.326;2022-10-16T07:21:59;11.60;1.00
10566;DHT22;5331;48.148;16.326;2022-10-16T07:24:29;11.60;1.00
10566;DHT22;5331;48.148;16.326;2022-10-16T07:26:57;11.70;1.00
10566;DHT22;5331;48.148;16.326;2022-10-16T07:29:24;11.80;1.00
10566;DHT22;5331;48.148;16.326;2022-10-16T07:31:51;11.80;1.00
10566;DHT22;5331;48.148;16.326;2022-10-16T07:34:19;11.80;1.00
10566;DHT22;5331;48.148;16.326;2022-10-16T07:36:48;11.80;1.00
10566;DHT22;5331;48.148;16.326;2022-10-16T07:39:15;11.90;1.00
10566;DHT22;5331;48.148;16.326;2022-10-16T07:41:44;11.90;1.00
10566;DHT22;5331;48.148;16.326;2022-10-16T07:44:11;11.90;1.00
10566;DHT22;5331;48.148;16.326;2022-10-16T07:46:38;11.90;1.00
10566;DHT22;5331;48.148;16.326;2022-10-16T07:49:05;11.90;1.00
10566;DHT22;5331;48.148;16.326;2022-10-16T07:51:32;12.00;1.00
10566;DHT22;5331;48.148;16.326;2022-10-16T07:53:59;12.00;1.00
10566;DHT22;5331;48.148;16.326;2022-10-16T07:56:26;11.90;1.00
10566;DHT22;5331;48.148;16.326;2022-10-16T07:58:54;11.90;1.00
10566;DHT22;5331;48.148;16.326;2022-10-16T08:01:22;11.90;1.00
10566;DHT22;5331;48.148;16.326;2022-10-16T08:03:51;12.00;1.00
10566;DHT22;5331;48.148;16.326;2022-10-16T08:06:20;12.10;1.00
10566;DHT22;5331;48.148;16.326;2022-10-16T08:08:47;12.10;1.00
10566;DHT22;5331;48.148;16.326;2022-10-16T08:11:14;12.10;1.00
10566;DHT22;5331;48.148;16.326;2022-10-16T08:13:41;12.20;1.00
10566;DHT22;5331;48.148;16.326;2022-10-16T08:16:09;12.10;1.00
10566;DHT22;5331;48.148;16.326;2022-10-16T08:18:37;12.10;1.00
10566;DHT22;5331;48.148;16.326;2022-10-16T08:21:05;12.20;1.00
10566;DHT22;5331;48.148;16.326;2022-10-16T08:23:33;12.20;1.00
10566;DHT22;5331;48.148;16.326;2022-10-16T08:26:04;12.30;1.00
10566;DHT22;5331;48.148;16.326;2022-10-16T08:28:32;12.30;1.00
10566;DHT22;5331;48.148;16.326;2022-10-16T08:31:06;12.30;1.00
10566;DHT22;5331;48.148;16.326;2022-10-16T08:33:34;12.30;1.00
10566;DHT22;5331;48.148;16.326;2022-10-16T08:36:02;12.30;1.00
10566;DHT22;5331;48.148;16.326;2022-10-16T08:38:29;12.40;1.00
10566;DHT22;5331;48.148;16.326;2022-10-16T08:41:10;12.40;1.00
10566;DHT22;5331;48.148;16.326;2022-10-16T08:44:00;12.30;1.00
10566;DHT22;5331;48.148;16.326;2022-10-16T08:46:37;12.40;1.00
10566;DHT22;5331;48.148;16.326;2022-10-16T08:49:11;12.50;1.00
10566;DHT22;5331;48.148;16.326;2022-10-16T08:51:39;12.50;1.00
10566;DHT22;5331;48.148;16.326;2022-10-16T08:54:16;12.50;1.00
10566;DHT22;5331;48.148;16.326;2022-10-16T08:56:46;12.50;1.00
10566;DHT22;5331;48.148;16.326;2022-10-16T08:59:16;12.50;1.00
10566;DHT22;5331;48.148;16.326;2022-10-16T09:01:46;12.50;1.00
10566;DHT22;5331;48.148;16.326;2022-10-16T09:04:41;12.60;1.00
10566;DHT22;5331;48.148;16.326;2022-10-16T09:07:15;12.50;1.00
10566;DHT22;5331;48.148;16.326;2022-10-16T09:09:58;12.50;1.00
10566;DHT22;5331;48.148;16.326;2022-10-16T09:12:32;12.50;1.00
10566;DHT22;5331;48.148;16.326;2022-10-16T09:15:14;12.60;1.00
10566;DHT22;5331;48.148;16.326;2022-10-16T09:17:52;12.60;1.00
10566;DHT22;5331;48.148;16.326;2022-10-16T09:20:35;12.50;1.00
10566;DHT22;5331;48.148;16.326;2022-10-16T09:23:25;12.60;1.00
10566;DHT22;5331;48.148;16.326;2022-10-16T09:25:53;12.60;1.00
10566;DHT22;5331;48.148;16.326;2022-10-16T09:28:21;12.60;1.00
10566;DHT22;5331;48.148;16.326;2022-10-16T09:30:49;12.70;1.00
10566;DHT22;5331;48.148;16.326;2022-10-16T09:33:18;12.70;1.00
10566;DHT22;5331;48.148;16.326;2022-10-16T09:35:49;12.60;1.00
10566;DHT22;5331;48.148;16.326;2022-10-16T09:38:25;12.70;1.00
10566;DHT22;5331;48.148;16.326;2022-10-16T09:40:53;12.70;1.00
10566;DHT22;5331;48.148;16.326;2022-10-16T09:43:23;12.80;1.00
10566;DHT22;5331;48.148;16.326;2022-10-16T09:45:56;12.80;1.00
10566;DHT22;5331;48.148;16.326;2022-10-16T09:48:28;12.80;1.00
10566;DHT22;5331;48.148;16.326;2022-10-16T09:51:00;12.80;1.00
10566;DHT22;5331;48.148;16.326;2022-10-16T09:53:39;12.70;1.00
10566;DHT22;5331;48.148;16.326;2022-10-16T09:56:06;12.70;1.00
10566;DHT22;5331;48.148;16.326;2022-10-16T09:58:33;12.70;1.00
10566;DHT22;5331;48.148;16.326;2022-10-16T10:01:00;12.80;1.00
10566;DHT22;5331;48.148;16.326;2022-10-16T10:03:34;12.90;1.00
10566;DHT22;5331;48.148;16.326;2022-10-16T10:06:14;12.90;1.00
10566;DHT22;5331;48.148;16.326;2022-10-16T10:08:54;12.90;1.00
10566;DHT22;5331;48.148;16.326;2022-10-16T10:11:47;13.00;1.00
10566;DHT22;5331;48.148;16.326;2022-10-16T10:14:31;13.00;1.00
10566;DHT22;5331;48.148;16.326;2022-10-16T10:17:13;13.10;1.00
10566;DHT22;5331;48.148;16.326;2022-10-16T10:19:46;13.20;1.00
10566;DHT22;5331;48.148;16.326;2022-10-16T10:22:23;13.10;1.00
10566;DHT22;5331;48.148;16.326;2022-10-16T10:25:19;13.00;1.00
10566;DHT22;5331;48.148;16.326;2022-10-16T10:28:07;13.10;1.00
10566;DHT22;5331;48.148;16.326;2022-10-16T10:30:42;13.20;1.00
10566;DHT22;5331;48.148;16.326;2022-10-16T10:33:20;13.20;1.00
10566;DHT22;5331;48.148;16.326;2022-10-16T10:35:56;13.20;1.00
10566;DHT22;5331;48.148;16.326;2022-10-16T10:38:36;13.10;1.00
10566;DHT22;5331;48.148;16.326;2022-10-16T10:41:19;13.30;1.00
10566;DHT22;5331;48.148;16.326;2022-10-16T10:44:00;13.30;1.00
10566;DHT22;5331;48.148;16.326;2022-10-16T10:46:34;13.30;1.00
10566;DHT22;5331;48.148;16.326;2022-10-16T10:49:23;13.40;1.00
10566;DHT22;5331;48.148;16.326;2022-10-16T10:51:58;13.40;1.00
10566;DHT22;5331;48.148;16.326;2022-10-16T10:54:36;13.50;1.00
10566;DHT22;5331;48.148;16.326;2022-10-16T10:57:10;13.70;1.00
10566;DHT22;5331;48.148;16.326;2022-10-16T11:02:42;13.80;1.00
10566;DHT22;5331;48.148;16.326;2022-10-16T11:08:16;13.80;1.00
10566;DHT22;5331;48.148;16.326;2022-10-16T11:10:52;13.90;1.00
10566;DHT22;5331;48.148;16.326;2022-10-16T11:13:27;14.00;1.00
10566;DHT22;5331;48.148;16.326;2022-10-16T11:15:58;14.10;1.00
10566;DHT22;5331;48.148;16.326;2022-10-16T11:18:32;14.20;1.00
10566;DHT22;5331;48.148;16.326;2022-10-16T11:21:04;14.30;1.00
10566;DHT22;5331;48.148;16.326;2022-10-16T11:23:35;14.40;1.00
10566;DHT22;5331;48.148;16.326;2022-10-16T11:26:13;14.40;1.00
10566;DHT22;5331;48.148;16.326;2022-10-16T11:28:45;14.40;1.00
10566;DHT22;5331;48.148;16.326;2022-10-16T11:31:17;14.50;1.00
10566;DHT22;5331;48.148;16.326;2022-10-16T11:33:49;14.60;1.00
10566;DHT22;5331;48.148;16.326;2022-10-16T11:36:25;14.70;1.00
10566;DHT22;5331;48.148;16.326;2022-10-16T11:39:02;14.80;1.00
10566;DHT22;5331;48.148;16.326;2022-10-16T11:41:37;14.80;1.00
10566;DHT22;5331;48.148;16.326;2022-10-16T11:44:24;14.90;1.00
10566;DHT22;5331;48.148;16.326;2022-10-16T11:47:03;14.80;1.00
10566;DHT22;5331;48.148;16.326;2022-10-16T11:49:34;15.00;1.00
10566;DHT22;5331;48.148;16.326;2022-10-16T11:52:10;15.20;1.00
10566;DHT22;5331;48.148;16.326;2022-10-16T11:54:44;15.40;1.00
10566;DHT22;5331;48.148;16.326;2022-10-16T11:57:17;15.70;1.00
10566;DHT22;5331;48.148;16.326;2022-10-16T11:59:50;15.90;1.00
10566;DHT22;5331;48.148;16.326;2022-10-16T12:02:31;16.10;1.00
10566;DHT22;5331;48.148;16.326;2022-10-16T12:05:07;16.30;1.00
10566;DHT22;5331;48.148;16.326;2022-10-16T12:07:45;16.40;1.00
10566;DHT22;5331;48.148;16.326;2022-10-16T12:10:21;16.60;1.00
10566;DHT22;5331;48.148;16.326;2022-10-16T12:12:50;16.80;1.00
10566;DHT22;5331;48.148;16.326;2022-10-16T12:15:23;17.10;1.00
10566;DHT22;5331;48.148;16.326;2022-10-16T12:17:50;17.30;1.00
10566;DHT22;5331;48.148;16.326;2022-10-16T12:20:29;17.50;1.00
10566;DHT22;5331;48.148;16.326;2022-10-16T12:23:00;17.70;1.00
10566;DHT22;5331;48.148;16.326;2022-10-16T12:25:29;17.80;1.00
10566;DHT22;5331;48.148;16.326;2022-10-16T12:28:17;18.00;1.00
10566;DHT22;5331;48.148;16.326;2022-10-16T12:30:53;18.00;1.00
10566;DHT22;5331;48.148;16.326;2022-10-16T12:33:24;17.90;1.00
10566;DHT22;5331;48.148;16.326;2022-10-16T12:35:52;17.80;1.00
10566;DHT22;5331;48.148;16.326;2022-10-16T12:38:21;17.90;1.00
10566;DHT22;5331;48.148;16.326;2022-10-16T12:40:56;17.90;1.00
10566;DHT22;5331;48.148;16.326;2022-10-16T12:43:38;18.00;1.00
10566;DHT22;5331;48.148;16.326;2022-10-16T12:46:34;18.00;1.00
10566;DHT22;5331;48.148;16.326;2022-10-16T12:49:17;18.10;1.00
10566;DHT22;5331;48.148;16.326;2022-10-16T12:51:46;18.30;1.00
10566;DHT22;5331;48.148;16.326;2022-10-16T12:54:15;18.30;1.00
10566;DHT22;5331;48.148;16.326;2022-10-16T12:56:52;18.60;1.00
10566;DHT22;5331;48.148;16.326;2022-10-16T12:59:35;18.80;1.00
10566;DHT22;5331;48.148;16.326;2022-10-16T13:05:25;18.80;1.00
10566;DHT22;5331;48.148;16.326;2022-10-16T13:08:00;18.90;1.00
10566;DHT22;5331;48.148;16.326;2022-10-16T13:10:36;19.00;1.00
10566;DHT22;5331;48.148;16.326;2022-10-16T13:13:23;19.10;1.00
10566;DHT22;5331;48.148;16.326;2022-10-16T13:16:06;19.10;1.00
10566;DHT22;5331;48.148;16.326;2022-10-16T13:18:43;19.00;1.00
10566;DHT22;5331;48.148;16.326;2022-10-16T13:21:21;19.00;1.00
10566;DHT22;5331;48.148;16.326;2022-10-16T13:23:57;18.90;1.00
10566;DHT22;5331;48.148;16.326;2022-10-16T13:26:34;18.90;1.00
10566;DHT22;5331;48.148;16.326;2022-10-16T13:29:12;18.90;1.00
10566;DHT22;5331;48.148;16.326;2022-10-16T13:31:43;19.00;1.00
10566;DHT22;5331;48.148;16.326;2022-10-16T13:34:14;19.00;1.00
10566;DHT22;5331;48.148;16.326;2022-10-16T13:36:47;18.90;1.00
10566;DHT22;5331;48.148;16.326;2022-10-16T13:39:21;19.00;1.00
10566;DHT22;5331;48.148;16.326;2022-10-16T13:42:00;19.00;1.00
10566;DHT22;5331;48.148;16.326;2022-10-16T13:44:29;18.90;1.00
10566;DHT22;5331;48.148;16.326;2022-10-16T13:47:02;18.90;1.00
10566;DHT22;5331;48.148;16.326;2022-10-16T13:49:29;18.90;1.00
10566;DHT22;5331;48.148;16.326;2022-10-16T13:51:57;18.90;1.00
10566;DHT22;5331;48.148;16.326;2022-10-16T13:54:25;19.10;1.00
10566;DHT22;5331;48.148;16.326;2022-10-16T13:56:54;19.10;1.00
10566;DHT22;5331;48.148;16.326;2022-10-16T13:59:25;19.10;1.00
10566;DHT22;5331;48.148;16.326;2022-10-16T14:01:56;19.10;1.00
10566;DHT22;5331;48.148;16.326;2022-10-16T14:04:27;19.00;1.00
10566;DHT22;5331;48.148;16.326;2022-10-16T14:06:55;19.10;1.00
10566;DHT22;5331;48.148;16.326;2022-10-16T14:09:24;19.20;1.00
10566;DHT22;5331;48.148;16.326;2022-10-16T14:11:55;19.20;1.00
10566;DHT22;5331;48.148;16.326;2022-10-16T14:14:23;19.20;1.00
10566;DHT22;5331;48.148;16.326;2022-10-16T14:16:50;19.20;1.00
10566;DHT22;5331;48.148;16.326;2022-10-16T14:19:21;19.30;1.00
10566;DHT22;5331;48.148;16.326;2022-10-16T14:21:50;19.30;1.00
10566;DHT22;5331;48.148;16.326;2022-10-16T14:24:30;19.30;1.00
10566;DHT22;5331;48.148;16.326;2022-10-16T14:26:59;19.30;1.00
10566;DHT22;5331;48.148;16.326;2022-10-16T14:29:27;19.30;1.00
10566;DHT22;5331;48.148;16.326;2022-10-16T14:31:58;19.30;1.00
10566;DHT22;5331;48.148;16.326;2022-10-16T14:34:28;19.30;1.00
10566;DHT22;5331;48.148;16.326;2022-10-16T14:36:59;19.30;1.00
10566;DHT22;5331;48.148;16.326;2022-10-16T14:39:30;19.30;1.00
10566;DHT22;5331;48.148;16.326;2022-10-16T14:41:58;19.30;1.00
10566;DHT22;5331;48.148;16.326;2022-10-16T14:44:29;19.30;1.00
10566;DHT22;5331;48.148;16.326;2022-10-16T14:47:06;19.30;1.00
10566;DHT22;5331;48.148;16.326;2022-10-16T14:49:33;19.40;1.00
10566;DHT22;5331;48.148;16.326;2022-10-16T14:52:01;19.40;1.00
10566;DHT22;5331;48.148;16.326;2022-10-16T14:54:28;19.30;1.00
10566;DHT22;5331;48.148;16.326;2022-10-16T14:56:56;19.40;1.00
10566;DHT22;5331;48.148;16.326;2022-10-16T14:59:27;19.40;1.00
10566;DHT22;5331;48.148;16.326;2022-10-16T15:01:55;19.40;1.00
10566;DHT22;5331;48.148;16.326;2022-10-16T15:04:22;19.30;1.00
10566;DHT22;5331;48.148;16.326;2022-10-16T15:06:50;19.30;1.00
10566;DHT22;5331;48.148;16.326;2022-10-16T15:09:18;19.30;1.00
10566;DHT22;5331;48.148;16.326;2022-10-16T15:11:45;19.20;1.00
10566;DHT22;5331;48.148;16.326;2022-10-16T15:14:13;19.20;1.00
10566;DHT22;5331;48.148;16.326;2022-10-16T15:16:40;19.20;1.00
10566;DHT22;5331;48.148;16.326;2022-10-16T15:19:07;19.20;1.00
10566;DHT22;5331;48.148;16.326;2022-10-16T15:21:34;19.10;1.00
10566;DHT22;5331;48.148;16.326;2022-10-16T15:24:01;19.00;1.00
10566;DHT22;5331;48.148;16.326;2022-10-16T15:26:30;18.90;1.00
10566;DHT22;5331;48.148;16.326;2022-10-16T15:28:57;18.80;1.00
10566;DHT22;5331;48.148;16.326;2022-10-16T15:31:24;18.70;1.00
10566;DHT22;5331;48.148;16.326;2022-10-16T15:33:51;18.70;1.00
10566;DHT22;5331;48.148;16.326;2022-10-16T15:36:25;18.60;1.00
10566;DHT22;5331;48.148;16.326;2022-10-16T15:38:53;18.50;1.00
10566;DHT22;5331;48.148;16.326;2022-10-16T15:41:21;18.40;1.00
10566;DHT22;5331;48.148;16.326;2022-10-16T15:43:50;18.30;1.00
10566;DHT22;5331;48.148;16.326;2022-10-16T15:46:19;18.20;1.00
10566;DHT22;5331;48.148;16.326;2022-10-16T15:48:47;18.10;1.00
10566;DHT22;5331;48.148;16.326;2022-10-16T15:51:16;18.00;1.00
10566;DHT22;5331;48.148;16.326;2022-10-16T15:53:44;17.90;1.00
10566;DHT22;5331;48.148;16.326;2022-10-16T15:56:13;17.80;1.00
10566;DHT22;5331;48.148;16.326;2022-10-16T15:58:41;17.70;1.00
10566;DHT22;5331;48.148;16.326;2022-10-16T16:01:10;17.60;1.00
10566;DHT22;5331;48.148;16.326;2022-10-16T16:03:38;17.40;1.00
10566;DHT22;5331;48.148;16.326;2022-10-16T16:06:08;17.40;1.00
10566;DHT22;5331;48.148;16.326;2022-10-16T16:08:35;17.20;1.00
10566;DHT22;5331;48.148;16.326;2022-10-16T16:11:04;17.10;1.00
10566;DHT22;5331;48.148;16.326;2022-10-16T16:13:32;16.90;1.00
10566;DHT22;5331;48.148;16.326;2022-10-16T16:15:59;16.90;1.00